Time;durP1;ratioP1;P1;durP2;ratioP2;P2;SDS_P1;SDS_P2;PMS_P1;PMS_P2;Temp;Humidity;BMP_temperature;BMP_pressure;BME280_temperature;BME280_humidity;BME280_pressure;Samples;Min_cycle;Max_cycle;Signal;HPM_P1;HPM_P2
2023/12/03 00:02:25;;;;;;;199.77;47.47;;;;;;;;;;4881337;29;20128;-90
2023/12/03 00:12:09;;;;;;;290.92;51.75;;;;;;;;;;4833359;29;20475;-91
2023/12/03 00:18:57;;;;;;;243.75;45.95;;;;;;;;;;4784698;30;20123;-90
2023/12/03 00:22:17;;;;;;;225.75;45.40;;;;;;;;;;4756751;30;20051;-89
2023/12/03 01:19:52;;;;;;;;;;;;;;;;;;;;;
2023/12/03 01:49:14;;;;;;;;;;;;;;;;;;;;;
2023/12/03 02:17:45;;;;;;;145.70;36.47;;;-0.40;99.90;;;;;;4878976;29;20044;-91
2023/12/03 02:26:57;;;;;;;163.45;39.08;;;-0.20;99.90;;;;;;4910892;29;20031;-91
2023/12/03 02:30:02;;;;;;;157.65;37.63;;;;;;;;;;4897979;29;20032;-91
2023/12/03 02:32:59;;;;;;;;;;;;;;;;;;;;;
2023/12/03 02:39:35;;;;;;;299.85;49.05;;;-0.10;99.90;;;;;;4893457;29;20059;-91
2023/12/03 03:04:35;;;;;;;1059.72;151.40;;;0.10;99.90;;;;;;4844826;29;20189;-92
2023/12/03 03:19:46;;;;;;;245.25;40.10;;;0.00;99.90;;;;;;4928491;29;20155;-92
2023/12/03 03:22:27;;;;;;;255.65;38.85;;;0.10;99.90;;;;;;4885651;29;20098;-91
2023/12/03 03:29:50;;;;;;;272.27;38.35;;;0.10;99.90;;;;;;4827222;29;20072;-92
2023/12/03 03:39:44;;;;;;;394.05;43.03;;;0.10;99.90;;;;;;4790551;29;20042;-92
2023/12/03 03:42:34;;;;;;;329.98;40.60;;;0.10;99.90;;;;;;4796687;29;20054;-91
2023/12/03 04:48:05;;;;;;;578.40;64.50;;;0.10;99.90;;;;;;4938113;29;20063;-92
2023/12/03 04:54:43;;;;;;;487.08;61.78;;;0.20;99.90;;;;;;4919547;29;20619;-92
2023/12/03 05:07:50;;;;;;;476.85;60.08;;;;;;;;;;4924338;29;20268;-91
2023/12/03 05:10:29;;;;;;;517.38;63.85;;;;;;;;;;4908216;29;20061;-90
2023/12/03 05:13:50;;;;;;;;;;;0.20;99.90;;;;;;4920510;29;20051;-92
2023/12/03 05:16:43;;;;;;;468.33;56.25;;;0.20;99.90;;;;;;4877313;29;19923;-92
2023/12/03 05:22:30;;;;;;;;;;;;;;;;;;;;;
2023/12/03 05:25:23;;;;;;;422.38;53.47;;;;;;;;;;4878112;29;20053;-91
2023/12/03 05:27:49;;;;;;;449.33;55.70;;;;;;;;;;4868167;29;20051;-91
2023/12/03 05:30:28;;;;;;;462.02;54.58;;;0.20;99.90;;;;;;4867076;29;20056;-91
2023/12/03 05:33:24;;;;;;;414.75;51.17;;;0.20;99.90;;;;;;4863286;29;20169;-92
2023/12/03 05:57:57;;;;;;;387.35;50.38;;;;;;;;;;4881257;29;20044;-90
2023/12/03 06:00:27;;;;;;;336.25;50.17;;;;;;;;;;4849557;29;20287;-90
2023/12/03 06:03:03;;;;;;;342.45;49.03;;;;;;;;;;4839121;29;20045;-92
2023/12/03 06:05:30;;;;;;;326.27;44.22;;;;;;;;;;4828276;29;20050;-89
2023/12/03 06:08:16;;;;;;;343.85;45.80;;;;;;;;;;4836607;29;20083;-91
2023/12/03 06:10:49;;;;;;;338.15;45.28;;;;;;;;;;4850048;29;20053;-92
2023/12/03 06:13:21;;;;;;;371.05;46.03;;;;;;;;;;4874967;29;20109;-90
2023/12/03 06:16:14;;;;;;;;;;;;;;;;;;;;;
2023/12/03 06:18:50;;;;;;;370.35;50.60;;;;;;;;;;4861456;29;20053;-91
2023/12/03 06:21:25;;;;;;;;;;;0.10;99.90;;;;;;4867725;29;20053;-91
2023/12/03 06:23:53;;;;;;;335.95;46.33;;;;;;;;;;4887963;29;20010;-90
2023/12/03 06:26:20;;;;;;;348.02;48.13;;;;;;;;;;4845589;29;20056;-90
2023/12/03 06:28:47;;;;;;;329.98;46.65;;;;;;;;;;4843492;29;20089;-91
2023/12/03 06:35:42;;;;;;;;;;;;;;;;;;;;;
2023/12/03 06:46:34;;;;;;;327.45;39.72;;;;;;;;;;4756066;30;20058;-92
2023/12/03 06:49:00;;;;;;;305.42;38.55;;;;;;;;;;4758514;30;20059;-92
2023/12/03 06:51:29;;;;;;;319.00;40.55;;;;;;;;;;4759144;30;20044;-91
2023/12/03 06:54:17;;;;;;;325.33;40.08;;;;;;;;;;4806272;29;20046;-92
2023/12/03 06:56:58;;;;;;;323.45;42.63;;;;;;;;;;4841226;29;20058;-91
2023/12/03 06:59:42;;;;;;;286.50;36.67;;;;;;;;;;4848577;29;20629;-92
2023/12/03 07:02:10;;;;;;;352.63;39.83;;;;;;;;;;4826456;29;20113;-92
2023/12/03 07:04:43;;;;;;;288.48;38.53;;;;;;;;;;4881867;29;20100;-91
2023/12/03 07:07:12;;;;;;;298.85;39.45;;;;;;;;;;4899808;29;20083;-92
2023/12/03 07:09:50;;;;;;;370.77;41.67;;;;;;;;;;4889249;29;20066;-92
2023/12/03 07:12:41;;;;;;;372.15;44.92;;;0.20;99.90;;;;;;4886783;29;20561;-93
2023/12/03 07:15:23;;;;;;;327.88;40.67;;;0.20;99.90;;;;;;4891710;29;20115;-91
2023/12/03 07:17:57;;;;;;;369.08;45.92;;;;;;;;;;4885815;29;20091;-93
2023/12/03 07:20:23;;;;;;;406.20;42.75;;;;;;;;;;4892638;29;20748;-92
2023/12/03 07:22:55;;;;;;;382.15;45.75;;;0.20;99.90;;;;;;4899778;29;20044;-91
2023/12/03 07:26:08;;;;;;;257.10;32.10;;;0.20;99.90;;;;;;4881939;29;20135;-92
2023/12/03 07:28:51;;;;;;;341.05;40.55;;;;;;;;;;4885812;29;20052;-92
2023/12/03 07:31:38;;;;;;;327.88;39.08;;;0.10;99.90;;;;;;4884358;29;20630;-91
2023/12/03 07:34:04;;;;;;;345.23;41.88;;;;;;;;;;4890034;29;20052;-91
2023/12/03 07:36:30;;;;;;;290.67;41.38;;;;;;;;;;4899685;29;20059;-88
2023/12/03 07:38:57;;;;;;;290.55;38.95;;;;;;;;;;4913652;29;20524;-91
2023/12/03 07:41:33;;;;;;;293.90;36.63;;;;;;;;;;4900305;29;20079;-92
2023/12/03 07:44:02;;;;;;;258.73;36.83;;;;;;;;;;4900179;29;20047;-91
2023/12/03 07:46:28;;;;;;;292.13;38.10;;;;;;;;;;4894850;29;20513;-93
2023/12/03 07:48:55;;;;;;;330.35;38.85;;;;;;;;;;4897816;29;20047;-92
2023/12/03 07:51:30;;;;;;;291.17;37.95;;;;;;;;;;4902054;29;20151;-92
2023/12/03 07:54:10;;;;;;;292.27;36.65;;;;;;;;;;4901543;29;20056;-92
2023/12/03 07:56:52;;;;;;;290.27;39.25;;;;;;;;;;4915220;29;20051;-91
2023/12/03 07:59:36;;;;;;;281.25;36.00;;;;;;;;;;4901764;29;20100;-92
2023/12/03 08:02:02;;;;;;;306.65;38.30;;;;;;;;;;4898862;29;20416;-91
2023/12/03 08:04:40;;;;;;;292.55;39.33;;;;;;;;;;4885633;29;20525;-92
2023/12/03 08:07:10;;;;;;;245.10;38.03;;;;;;;;;;4889995;29;20048;-90
2023/12/03 08:09:36;;;;;;;244.10;35.53;;;;;;;;;;4883462;29;20048;-90
2023/12/03 08:12:05;;;;;;;270.52;36.38;;;;;;;;;;4889698;29;20097;-92
2023/12/03 08:14:31;;;;;;;273.63;36.22;;;;;;;;;;4888328;29;20227;-92
2023/12/03 08:17:18;;;;;;;338.70;39.00;;;;;;;;;;4896231;29;20064;-92
2023/12/03 08:19:44;;;;;;;291.00;36.97;;;;;;;;;;4903961;29;20051;-92
2023/12/03 08:22:10;;;;;;;270.58;35.75;;;;;;;;;;4881461;29;20098;-91
2023/12/03 08:25:00;;;;;;;248.52;35.75;;;;;;;;;;4887826;29;20052;-92
2023/12/03 08:27:26;;;;;;;216.52;32.22;;;;;;;;;;4904229;29;20048;-90
2023/12/03 08:29:54;;;;;;;224.18;32.22;;;;;;;;;;4892578;29;20062;-90
2023/12/03 08:32:28;;;;;;;231.18;35.17;;;;;;;;;;4893582;29;20793;-92
2023/12/03 08:34:59;;;;;;;192.43;29.85;;;;;;;;;;4887703;29;20053;-91
2023/12/03 08:37:36;;;;;;;231.87;32.43;;;;;;;;;;4892236;29;20107;-91
2023/12/03 08:40:02;;;;;;;200.35;30.45;;;;;;;;;;4886069;29;20055;-90
2023/12/03 08:42:48;;;;;;;209.10;30.92;;;;;;;;;;4888032;29;20060;-92
2023/12/03 08:45:25;;;;;;;212.80;31.98;;;;;;;;;;4888128;29;20040;-91
2023/12/03 08:47:54;;;;;;;150.10;25.77;;;;;;;;;;4894567;29;20497;-91
2023/12/03 08:50:31;;;;;;;162.65;29.00;;;;;;;;;;4898595;29;20497;-91
2023/12/03 08:53:04;;;;;;;209.65;29.05;;;;;;;;;;4896275;29;20040;-91
2023/12/03 08:55:52;;;;;;;193.93;29.48;;;;;;;;;;4903571;29;20047;-92
2023/12/03 08:58:21;;;;;;;163.77;27.77;;;;;;;;;;4894589;29;20063;-91
2023/12/03 09:00:48;;;;;;;237.60;33.00;;;;;;;;;;4927139;29;21505;-91
2023/12/03 09:03:18;;;;;;;191.90;30.63;;;;;;;;;;4919095;29;20176;-90
2023/12/03 09:05:47;;;;;;;170.88;30.58;;;;;;;;;;4911072;29;20087;-91
2023/12/03 09:08:16;;;;;;;207.57;31.98;;;;;;;;;;4912000;29;20048;-91
2023/12/03 09:10:44;;;;;;;179.23;29.55;;;;;;;;;;4893253;29;20087;-91
2023/12/03 09:13:16;;;;;;;179.77;30.67;;;;;;;;;;4889575;29;20048;-91
2023/12/03 09:15:44;;;;;;;191.85;29.98;;;;;;;;;;4901516;29;20075;-92
2023/12/03 09:18:13;;;;;;;220.98;30.73;;;;;;;;;;4887751;29;20119;-92
2023/12/03 09:20:46;;;;;;;192.25;31.33;;;;;;;;;;4898256;29;20063;-92
2023/12/03 09:23:12;;;;;;;199.98;32.65;;;;;;;;;;4921583;29;20056;-92
2023/12/03 09:25:38;;;;;;;266.27;34.85;;;;;;;;;;4893564;29;20087;-91
2023/12/03 09:28:05;;;;;;;235.68;33.58;;;;;;;;;;4899078;29;20694;-91
2023/12/03 09:30:31;;;;;;;206.55;32.85;;;;;;;;;;4897671;29;20341;-92
2023/12/03 09:33:20;;;;;;;223.75;33.30;;;0.70;99.90;;;;;;4907004;29;20352;-93
2023/12/03 09:35:50;;;;;;;211.98;30.88;;;0.50;99.90;;;;;;4885385;29;20056;-92
2023/12/03 09:38:19;;;;;;;248.02;35.60;;;;;;;;;;4881703;29;20052;-91
2023/12/03 09:40:59;;;;;;;186.52;33.92;;;0.80;99.90;;;;;;4908362;29;20785;-91
2023/12/03 09:43:29;;;;;;;258.73;37.53;;;-0.20;99.90;;;;;;4888963;29;20338;-90
2023/12/03 09:46:06;;;;;;;292.13;35.42;;;0.80;99.90;;;;;;4901669;29;20108;-90
2023/12/03 09:48:36;;;;;;;203.23;35.05;;;;;;;;;;4892576;29;20052;-91
2023/12/03 09:51:03;;;;;;;206.13;36.70;;;;;;;;;;4898321;29;20044;-90
2023/12/03 09:53:31;;;;;;;179.90;37.97;;;;;;;;;;4895698;29;20031;-90
2023/12/03 09:55:58;;;;;;;214.65;40.83;;;;;;;;;;4896159;29;20048;-90
2023/12/03 09:58:30;;;;;;;187.18;39.90;;;;;;;;;;4889510;29;20046;-90
2023/12/03 10:00:56;;;;;;;;;;;0.90;99.90;;;;;;4889143;29;20103;-89
2023/12/03 10:03:22;;;;;;;174.80;40.13;;;;;;;;;;4889768;29;20296;-90
2023/12/03 10:05:49;;;;;;;212.40;40.70;;;0.90;99.90;;;;;;4894958;29;20055;-90
2023/12/03 10:08:15;;;;;;;179.75;36.80;;;;;;;;;;4912387;29;20084;-91
2023/12/03 10:10:46;;;;;;;195.63;40.72;;;1.10;99.90;;;;;;4889200;29;20159;-91
2023/12/03 10:13:13;;;;;;;193.10;41.53;;;1.10;99.90;;;;;;4901831;29;20047;-90
2023/12/03 10:15:40;;;;;;;200.98;40.55;;;;;;;;;;4896457;29;20307;-90
2023/12/03 10:18:07;;;;;;;177.57;41.22;;;;;;;;;;4886509;29;20047;-90
2023/12/03 10:20:34;;;;;;;167.27;40.67;;;;;;;;;;4889552;29;20043;-90
2023/12/03 10:23:04;;;;;;;190.82;39.78;;;;;;;;;;4887271;29;20059;-90
2023/12/03 10:25:33;;;;;;;196.43;43.60;;;;;;;;;;4893160;29;20071;-90
2023/12/03 10:28:01;;;;;;;203.45;42.65;;;1.00;99.90;;;;;;4884479;29;20387;-91
2023/12/03 10:30:27;;;;;;;195.40;41.75;;;;;;;;;;4883756;29;20083;-90
2023/12/03 10:32:53;;;;;;;192.55;44.97;;;1.00;99.90;;;;;;4880619;29;20048;-90
2023/12/03 10:35:24;;;;;;;166.35;42.85;;;1.00;99.90;;;;;;4886697;29;20143;-91
2023/12/03 10:37:50;;;;;;;248.70;47.95;;;;;;;;;;4899940;29;20052;-90
2023/12/03 10:40:20;;;;;;;270.13;47.58;;;;;;;;;;4894894;29;20142;-94
2023/12/03 10:42:47;;;;;;;230.23;48.55;;;1.50;99.90;;;;;;4883135;29;20091;-90
2023/12/03 10:45:17;;;;;;;174.98;43.72;;;1.10;99.90;;;;;;4884264;29;20508;-89
2023/12/03 10:47:44;;;;;;;233.05;48.67;;;;;;;;;;4882605;29;20861;-92
2023/12/03 10:50:12;;;;;;;174.15;47.38;;;1.30;99.90;;;;;;4895230;29;20550;-90
2023/12/03 10:52:40;;;;;;;179.57;44.85;;;1.20;99.90;;;;;;4887880;29;20051;-91
2023/12/03 10:55:08;;;;;;;231.43;48.92;;;1.20;99.90;;;;;;4886733;29;20051;-90
2023/12/03 10:57:43;;;;;;;206.50;48.53;;;1.20;99.90;;;;;;4888173;29;20803;-89
2023/12/03 11:00:09;;;;;;;186.75;44.83;;;1.20;99.90;;;;;;4882575;29;20044;-90
2023/12/03 11:02:46;;;;;;;132.70;46.97;;;1.50;99.90;;;;;;4890886;29;20060;-93
2023/12/03 11:05:18;;;;;;;136.88;46.80;;;1.30;99.90;;;;;;4915779;29;20736;-87
2023/12/03 11:07:45;;;;;;;143.73;44.85;;;1.10;99.90;;;;;;4891288;29;20052;-93
2023/12/03 11:10:12;;;;;;;167.63;48.63;;;;;;;;;;4904721;29;20047;-90
2023/12/03 11:12:39;;;;;;;158.82;49.40;;;;;;;;;;4919262;29;20072;-90
2023/12/03 11:15:11;;;;;;;154.85;47.05;;;;;;;;;;4894747;29;20132;-90
2023/12/03 11:17:41;;;;;;;151.73;47.40;;;1.30;99.90;;;;;;4898280;29;20051;-88
2023/12/03 11:20:10;;;;;;;182.30;50.33;;;;;;;;;;4899456;29;20056;-90
2023/12/03 11:22:44;;;;;;;137.80;46.47;;;1.20;99.90;;;;;;4894556;29;20051;-89
2023/12/03 11:25:15;;;;;;;148.75;46.67;;;;;;;;;;4890087;29;20512;-90
2023/12/03 11:27:42;;;;;;;135.50;44.25;;;1.10;99.90;;;;;;4880549;29;20054;-89
2023/12/03 11:30:09;;;;;;;144.05;46.80;;;;;;;;;;4887636;29;20912;-88
2023/12/03 11:32:38;;;;;;;135.30;45.03;;;;;;;;;;4889752;29;20059;-90
2023/12/03 11:35:14;;;;;;;118.18;46.33;;;1.10;99.90;;;;;;4919538;29;20051;-90
2023/12/03 11:37:50;;;;;;;158.00;50.13;;;;;;;;;;4910369;29;20050;-90
2023/12/03 11:40:19;;;;;;;129.55;46.03;;;;;;;;;;4900797;29;20094;-89
2023/12/03 11:42:46;;;;;;;148.80;51.60;;;;;;;;;;4899776;29;20824;-90
2023/12/03 11:45:30;;;;;;;146.95;49.97;;;1.40;99.90;;;;;;4903846;29;20040;-90
2023/12/03 11:48:05;;;;;;;144.15;51.28;;;1.30;99.90;;;;;;4883052;29;20056;-89
2023/12/03 11:50:32;;;;;;;140.05;48.80;;;;;;;;;;4902311;29;20095;-90
2023/12/03 11:52:58;;;;;;;161.35;50.60;;;;;;;;;;4899399;29;20047;-88
2023/12/03 11:55:26;;;;;;;114.47;46.45;;;1.60;99.90;;;;;;4891711;29;20043;-89
2023/12/03 11:57:53;;;;;;;120.88;44.35;;;;;;;;;;4900565;29;20052;-90
2023/12/03 12:00:19;;;;;;;109.47;43.15;;;;;;;;;;4882434;29;20087;-89
2023/12/03 12:02:45;;;;;;;118.35;43.53;;;;;;;;;;4878135;29;20044;-88
2023/12/03 12:05:11;;;;;;;107.43;40.15;;;;;;;;;;4886660;29;20104;-88
2023/12/03 12:08:01;;;;;;;129.00;42.78;;;1.60;99.90;;;;;;4890097;29;20111;-91
2023/12/03 12:10:33;;;;;;;;;;;1.60;99.90;;;;;;4887612;29;20047;-91
2023/12/03 12:13:01;;;;;;;109.97;39.97;;;;;;;;;;4887496;29;19919;-89
2023/12/03 12:15:27;;;;;;;113.28;40.85;;;;;;;;;;4886024;29;20688;-89
2023/12/03 12:17:53;;;;;;;100.75;36.38;;;;;;;;;;4891780;29;20055;-89
2023/12/03 12:20:28;;;;;;;97.60;36.40;;;;;;;;;;4882444;29;20051;-89
2023/12/03 12:22:55;;;;;;;112.57;38.70;;;;;;;;;;4885992;29;20577;-89
2023/12/03 12:25:29;;;;;;;146.38;41.00;;;;;;;;;;4887004;29;20064;-90
2023/12/03 12:28:09;;;;;;;130.65;41.28;;;;;;;;;;4906321;29;20397;-88
2023/12/03 12:30:35;;;;;;;131.27;42.60;;;;;;;;;;4902881;29;20687;-89
2023/12/03 12:33:03;;;;;;;145.65;46.08;;;;;;;;;;4904080;29;20131;-90
2023/12/03 12:35:29;;;;;;;133.77;43.40;;;;;;;;;;4900602;29;20091;-89
2023/12/03 12:38:01;;;;;;;146.80;45.97;;;;;;;;;;4890329;29;20110;-91
2023/12/03 12:40:28;;;;;;;143.05;44.92;;;;;;;;;;4910634;29;20047;-89
2023/12/03 12:43:08;;;;;;;125.65;44.10;;;2.00;99.90;;;;;;4905365;29;20048;-88
2023/12/03 12:45:34;;;;;;;124.40;42.30;;;;;;;;;;4926998;29;20051;-89
2023/12/03 12:48:11;;;;;;;120.20;43.85;;;;;;;;;;4901900;29;20051;-92
2023/12/03 12:50:47;;;;;;;145.93;47.90;;;;;;;;;;4901994;29;20084;-91
2023/12/03 12:53:13;;;;;;;134.68;43.42;;;;;;;;;;4890743;29;20159;-91
2023/12/03 12:55:39;;;;;;;152.20;45.35;;;;;;;;;;4917220;29;20181;-91
2023/12/03 12:58:06;;;;;;;136.80;46.03;;;1.50;99.90;;;;;;4899214;29;20391;-89
2023/12/03 13:00:32;;;;;;;121.88;42.38;;;1.30;99.90;;;;;;4903943;29;20055;-88
2023/12/03 13:02:58;;;;;;;139.98;44.70;;;;;;;;;;4891677;29;20076;-91
2023/12/03 13:05:30;;;;;;;136.32;42.90;;;;;;;;;;4899326;29;20143;-92
2023/12/03 13:07:57;;;;;;;156.27;45.67;;;;;;;;;;4896974;29;20439;-90
2023/12/03 13:10:23;;;;;;;130.32;45.53;;;;;;;;;;4891899;29;20059;-87
2023/12/03 13:12:49;;;;;;;154.70;45.70;;;;;;;;;;4889728;29;20086;-90
2023/12/03 13:15:20;;;;;;;137.13;46.25;;;;;;;;;;4929983;29;20055;-90
2023/12/03 13:17:59;;;;;;;147.65;47.17;;;0.90;99.90;;;;;;4908573;29;20091;-91
2023/12/03 13:20:25;;;;;;;114.72;45.28;;;1.00;99.90;;;;;;4915240;29;20071;-89
2023/12/03 13:23:06;;;;;;;128.95;46.42;;;0.90;99.90;;;;;;4892742;29;20055;-91
2023/12/03 13:25:32;;;;;;;144.50;45.78;;;0.90;99.90;;;;;;4888154;29;20040;-90
2023/12/03 13:27:59;;;;;;;138.85;47.67;;;;;;;;;;4900173;29;20130;-88
2023/12/03 13:30:25;;;;;;;126.63;48.63;;;;;;;;;;4886229;29;20047;-90
2023/12/03 13:32:51;;;;;;;120.18;45.47;;;;;;;;;;4901967;29;20050;-96
2023/12/03 13:35:17;;;;;;;158.32;50.78;;;;;;;;;;4900244;29;20047;-89
2023/12/03 13:37:44;;;;;;;139.32;45.53;;;;;;;;;;4894631;29;20831;-90
2023/12/03 13:40:15;;;;;;;141.77;43.97;;;;;;;;;;4908104;29;20047;-90
2023/12/03 13:43:02;;;;;;;115.68;43.42;;;;;;;;;;4898242;29;20088;-93
2023/12/03 13:45:29;;;;;;;136.50;45.20;;;;;;;;;;4914711;29;20055;-92
2023/12/03 13:47:55;;;;;;;123.50;44.13;;;;;;;;;;4907197;29;20075;-91
2023/12/03 13:50:22;;;;;;;123.10;42.10;;;;;;;;;;4897260;29;20111;-92
2023/12/03 13:52:51;;;;;;;160.98;44.83;;;;;;;;;;4886879;29;20048;-90
2023/12/03 13:55:18;;;;;;;109.13;41.08;;;;;;;;;;4919913;29;20047;-90
2023/12/03 13:57:45;;;;;;;167.77;45.35;;;;;;;;;;4892574;29;20204;-91
2023/12/03 14:00:12;;;;;;;156.77;45.78;;;;;;;;;;4904172;29;20151;-91
2023/12/03 14:02:38;;;;;;;141.93;41.88;;;0.30;99.90;;;;;;4896823;29;20081;-92
2023/12/03 14:05:04;;;;;;;113.85;38.92;;;;;;;;;;4880471;29;20091;-92
2023/12/03 14:07:30;;;;;;;112.60;39.90;;;;;;;;;;4885073;29;20058;-90
2023/12/03 14:09:56;;;;;;;142.45;41.42;;;;;;;;;;4886674;29;20052;-91
2023/12/03 14:12:28;;;;;;;144.88;41.78;;;;;;;;;;4884755;29;20502;-92
2023/12/03 14:14:57;;;;;;;126.70;40.03;;;;;;;;;;4890911;29;20155;-91
2023/12/03 14:17:23;;;;;;;135.88;39.78;;;;;;;;;;4893757;29;20055;-92
2023/12/03 14:19:49;;;;;;;197.00;43.63;;;;;;;;;;4896161;29;20308;-91
2023/12/03 14:22:17;;;;;;;106.55;38.72;;;;;;;;;;4899352;29;20048;-91
2023/12/03 14:24:44;;;;;;;112.05;37.42;;;;;;;;;;4881220;29;20048;-91
2023/12/03 14:27:11;;;;;;;133.13;37.85;;;;;;;;;;4891720;29;20618;-90
2023/12/03 14:29:37;;;;;;;110.30;37.63;;;;;;;;;;4882322;29;20044;-92
2023/12/03 14:32:04;;;;;;;141.73;40.92;;;;;;;;;;4897386;29;20051;-91
2023/12/03 14:34:39;;;;;;;139.20;42.20;;;;;;;;;;4912877;29;20126;-92
2023/12/03 14:37:06;;;;;;;128.32;39.13;;;;;;;;;;4889703;29;20056;-91
2023/12/03 14:39:37;;;;;;;133.00;38.92;;;;;;;;;;4910491;29;20071;-91
2023/12/03 14:42:09;;;;;;;201.52;43.38;;;;;;;;;;4869640;29;20103;-90
2023/12/03 14:44:36;;;;;;;148.95;40.42;;;;;;;;;;4878553;29;20132;-91
2023/12/03 14:47:02;;;;;;;119.88;36.58;;;;;;;;;;4876477;29;20052;-91
2023/12/03 14:49:34;;;;;;;98.80;34.40;;;;;;;;;;4878480;29;20056;-91
2023/12/03 14:52:10;;;;;;;98.10;33.90;;;;;;;;;;4877428;29;20080;-91
2023/12/03 14:54:37;;;;;;;145.48;36.83;;;;;;;;;;4867941;29;20214;-92
2023/12/03 14:57:05;;;;;;;99.78;34.42;;;;;;;;;;4863687;29;20657;-92
2023/12/03 14:59:37;;;;;;;125.97;37.42;;;;;;;;;;4870356;29;20074;-92
2023/12/03 15:02:04;;;;;;;112.65;33.88;;;;;;;;;;4879018;29;20048;-91
2023/12/03 15:04:35;;;;;;;104.57;33.13;;;;;;;;;;4892852;29;20067;-93
2023/12/03 15:07:04;;;;;;;124.00;35.88;;;;;;;;;;4879992;29;20593;-92
2023/12/03 15:09:35;;;;;;;101.50;32.40;;;;;;;;;;4876443;29;20617;-91
2023/12/03 15:12:02;;;;;;;128.65;35.50;;;;;;;;;;4877425;29;20130;-91
2023/12/03 15:14:33;;;;;;;95.63;33.13;;;;;;;;;;4882166;29;20086;-91
2023/12/03 15:16:59;;;;;;;126.45;36.38;;;;;;;;;;4897572;29;20058;-90
2023/12/03 15:19:26;;;;;;;134.02;38.20;;;;;;;;;;4881453;29;20512;-92
2023/12/03 15:21:52;;;;;;;89.78;31.55;;;;;;;;;;4896533;29;20052;-90
2023/12/03 15:24:31;;;;;;;112.68;33.70;;;;;;;;;;4889236;29;20047;-93
2023/12/03 15:27:04;;;;;;;133.45;36.10;;;;;;;;;;4892009;29;20047;-92
2023/12/03 15:29:39;;;;;;;107.03;36.83;;;;;;;;;;4882738;29;20075;-95
2023/12/03 15:32:08;;;;;;;;;;;2.00;99.90;;;;;;4886437;29;20052;-92
2023/12/03 15:34:34;;;;;;;113.50;35.17;;;;;;;;;;4897038;29;20013;-90
2023/12/03 15:37:00;;;;;;;107.40;34.58;;;;;;;;;;4890187;29;20528;-90
2023/12/03 15:39:29;;;;;;;111.57;35.83;;;;;;;;;;4900627;29;20135;-92
2023/12/03 15:41:55;;;;;;;90.88;33.00;;;;;;;;;;4902432;29;20509;-92
2023/12/03 15:44:27;;;;;;;133.63;37.50;;;;;;;;;;4896226;29;20043;-92
2023/12/03 15:47:02;;;;;;;107.13;35.65;;;;;;;;;;4897028;29;20048;-91
2023/12/03 15:49:31;;;;;;;101.13;35.92;;;;;;;;;;4888253;29;20119;-91
2023/12/03 15:52:00;;;;;;;90.55;32.58;;;;;;;;;;4891344;29;20047;-92
2023/12/03 15:54:29;;;;;;;85.60;32.45;;;;;;;;;;4889422;29;20048;-93
2023/12/03 15:57:01;;;;;;;101.65;34.47;;;;;;;;;;4902937;29;20047;-92
2023/12/03 15:59:30;;;;;;;106.97;36.72;;;;;;;;;;4899027;29;20055;-92
2023/12/03 16:02:00;;;;;;;95.22;34.92;;;;;;;;;;4895569;29;20056;-91
2023/12/03 16:04:34;;;;;;;90.43;32.75;;;;;;;;;;4898081;29;20074;-91
2023/12/03 16:07:03;;;;;;;130.32;38.30;;;;;;;;;;4891206;29;20040;-95
2023/12/03 16:09:45;;;;;;;109.53;36.92;;;;;;;;;;4900087;29;20123;-91
2023/12/03 16:12:12;;;;;;;105.38;35.72;;;;;;;;;;4898994;29;20061;-91
2023/12/03 16:15:03;;;;;;;117.72;36.08;;;;;;;;;;4902665;29;20130;-92
2023/12/03 16:17:50;;;;;;;105.22;34.47;;;;;;;;;;4892230;29;20048;-96
2023/12/03 16:20:27;;;;;;;110.93;35.88;;;;;;;;;;4887146;29;20592;-92
2023/12/03 16:22:53;;;;;;;108.72;37.65;;;;;;;;;;4895933;29;20056;-91
2023/12/03 16:25:20;;;;;;;111.32;34.95;;;;;;;;;;4904312;29;21026;-95
2023/12/03 16:27:46;;;;;;;95.22;33.80;;;;;;;;;;4889004;29;20076;-91
2023/12/03 16:30:13;;;;;;;99.80;39.70;;;;;;;;;;4900221;29;20043;-90
2023/12/03 16:32:43;;;;;;;88.40;33.88;;;;;;;;;;4921818;29;20135;-91
2023/12/03 16:35:13;;;;;;;87.50;33.58;;;;;;;;;;4916455;29;20048;-93
2023/12/03 16:38:13;;;;;;;77.28;31.15;;;-0.10;99.90;;;;;;4905507;29;20075;-91
2023/12/03 16:40:48;;;;;;;111.63;36.38;;;;;;;;;;4893900;29;20820;-94
2023/12/03 16:43:14;;;;;;;73.25;31.98;;;;;;;;;;4899996;29;20051;-90
2023/12/03 16:45:40;;;;;;;84.65;32.30;;;;;;;;;;4894186;29;20051;-90
2023/12/03 16:48:09;;;;;;;85.53;34.45;;;;;;;;;;4912547;29;20054;-90
2023/12/03 16:50:38;;;;;;;95.57;34.30;;;;;;;;;;4894496;29;20050;-92
2023/12/03 16:53:12;;;;;;;93.68;34.03;;;;;;;;;;4889598;29;20051;-90
2023/12/03 16:55:42;;;;;;;80.80;32.72;;;;;;;;;;4886483;29;20044;-93
2023/12/03 16:58:09;;;;;;;83.28;32.22;;;;;;;;;;4905796;29;20099;-91
2023/12/03 17:00:35;;;;;;;115.85;35.70;;;;;;;;;;4902639;29;20052;-90
2023/12/03 17:03:03;;;;;;;89.43;34.65;;;;;;;;;;4889413;29;20047;-93
2023/12/03 17:05:43;;;;;;;100.55;33.42;;;;;;;;;;4895656;29;20146;-91
2023/12/03 17:08:13;;;;;;;89.35;35.30;;;;;;;;;;4887254;29;20048;-92
2023/12/03 17:10:42;;;;;;;76.40;32.58;;;;;;;;;;4900422;29;20064;-94
2023/12/03 17:13:10;;;;;;;79.00;33.05;;;;;;;;;;4895869;29;20040;-91
2023/12/03 17:15:36;;;;;;;78.88;32.40;;;;;;;;;;4898271;29;20051;-92
2023/12/03 17:18:02;;;;;;;74.65;30.30;;;;;;;;;;4906158;29;20063;-92
2023/12/03 17:20:29;;;;;;;84.63;34.30;;;;;;;;;;4897942;29;20048;-91
2023/12/03 17:22:56;;;;;;;114.20;35.67;;;0.00;99.90;;;;;;4902621;29;20126;-91
2023/12/03 17:25:40;;;;;;;90.75;33.10;;;;;;;;;;4898084;29;20503;-94
2023/12/03 17:28:12;;;;;;;88.70;32.78;;;;;;;;;;4900176;29;20075;-91
2023/12/03 17:30:38;;;;;;;87.60;33.08;;;;;;;;;;4924202;29;20055;-94
2023/12/03 17:33:08;;;;;;;83.70;33.03;;;;;;;;;;4917086;29;20044;-91
2023/12/03 17:35:43;;;;;;;94.95;32.20;;;;;;;;;;4895768;29;20111;-93
2023/12/03 17:38:09;;;;;;;82.43;33.65;;;;;;;;;;4898008;29;20052;-92
2023/12/03 17:40:44;;;;;;;82.35;32.67;;;;;;;;;;4897141;29;20044;-92
2023/12/03 17:43:29;;;;;;;83.15;33.63;;;;;;;;;;4889812;29;20111;-91
2023/12/03 17:45:56;;;;;;;85.47;30.92;;;;;;;;;;4887421;29;20059;-91
2023/12/03 17:48:22;;;;;;;83.82;32.33;;;;;;;;;;4908863;29;20398;-92
2023/12/03 17:50:50;;;;;;;88.25;31.75;;;;;;;;;;4899927;29;20538;-90
2023/12/03 17:53:16;;;;;;;63.50;28.90;;;;;;;;;;4891628;29;20055;-90
2023/12/03 17:56:00;;;;;;;;;;;;;;;;;;;;;
2023/12/03 17:58:34;;;;;;;77.43;29.67;;;;;;;;;;4914722;29;20052;-93
2023/12/03 18:01:00;;;;;;;73.00;32.45;;;;;;;;;;4907560;29;20048;-93
2023/12/03 18:03:32;;;;;;;64.60;28.52;;;;;;;;;;4902828;29;20046;-92
2023/12/03 18:06:03;;;;;;;79.10;32.42;;;;;;;;;;4904387;29;20086;-90
2023/12/03 18:08:33;;;;;;;87.95;31.25;;;;;;;;;;4906207;29;20071;-93
2023/12/03 18:11:02;;;;;;;74.70;30.55;;;;;;;;;;4894369;29;20140;-92
2023/12/03 18:13:28;;;;;;;76.97;29.83;;;;;;;;;;4899296;29;20043;-90
2023/12/03 18:16:17;;;;;;;69.60;31.42;;;;;;;;;;4901805;29;20225;-92
2023/12/03 18:18:53;;;;;;;81.35;30.50;;;;;;;;;;4871117;29;20176;-94
2023/12/03 18:21:32;;;;;;;75.40;29.63;;;;;;;;;;4823045;29;20050;-91
2023/12/03 18:24:03;;;;;;;79.45;30.60;;;;;;;;;;4821571;29;20054;-92
2023/12/03 18:26:38;;;;;;;70.60;29.55;;;;;;;;;;4816553;29;20045;-92
2023/12/03 18:29:28;;;;;;;81.97;31.77;;;;;;;;;;4828159;29;20089;-93
2023/12/03 18:32:08;;;;;;;76.05;30.85;;;;;;;;;;4843337;29;20057;-94
2023/12/03 18:34:40;;;;;;;66.88;29.05;;;;;;;;;;4819782;29;20195;-92
2023/12/03 18:37:18;;;;;;;76.35;30.17;;;;;;;;;;4815377;29;20060;-92
2023/12/03 18:40:00;;;;;;;78.90;30.38;;;;;;;;;;4820719;29;20094;-91
2023/12/03 18:42:35;;;;;;;87.22;31.67;;;;;;;;;;4812714;29;20042;-92
2023/12/03 18:45:02;;;;;;;84.88;31.75;;;;;;;;;;4832176;29;20087;-93
2023/12/03 18:47:32;;;;;;;88.00;31.27;;;;;;;;;;4797554;29;20046;-92
2023/12/03 18:50:05;;;;;;;79.90;32.30;;;;;;;;;;4850754;29;20041;-92
2023/12/03 18:55:51;;;;;;;68.45;30.30;;;;;;;;;;4819290;29;20058;-94
2023/12/03 18:58:43;;;;;;;66.40;28.25;;;;;;;;;;4818633;29;20089;-94
2023/12/03 19:01:17;;;;;;;87.60;31.27;;;-0.20;99.90;;;;;;4817246;29;20086;-92
2023/12/03 19:03:58;;;;;;;89.10;33.10;;;;;;;;;;4809574;29;20057;-94
2023/12/03 19:06:27;;;;;;;76.78;31.27;;;;;;;;;;4864190;29;20135;-94
2023/12/03 19:08:59;;;;;;;70.95;30.85;;;;;;;;;;4880520;29;20055;-94
2023/12/03 19:14:47;;;;;;;83.80;31.73;;;;;;;;;;4877197;29;20128;-91
2023/12/03 19:17:19;;;;;;;69.03;30.80;;;;;;;;;;4864901;29;20057;-92
2023/12/03 19:19:57;;;;;;;70.38;28.73;;;;;;;;;;4862360;29;20629;-94
2023/12/03 19:22:24;;;;;;;69.72;30.50;;;;;;;;;;4848836;29;20052;-91
2023/12/03 19:24:59;;;;;;;91.88;31.73;;;;;;;;;;4876518;29;20145;-93